sensor_id;sensor_type;location;lat;lon;timestamp;temperature;humidity
22795;DHT22;11564;50.920;11.612;2023-06-05T00:01:36;7.60;96.30
22795;DHT22;11564;50.920;11.612;2023-06-05T00:04:02;7.60;96.90
22795;DHT22;11564;50.920;11.612;2023-06-05T00:06:29;7.60;97.50
22795;DHT22;11564;50.920;11.612;2023-06-05T00:08:54;7.50;97.80
22795;DHT22;11564;50.920;11.612;2023-06-05T00:11:20;7.50;99.00
22795;DHT22;11564;50.920;11.612;2023-06-05T00:13:47;7.40;99.20
22795;DHT22;11564;50.920;11.612;2023-06-05T00:16:12;7.50;99.80
22795;DHT22;11564;50.920;11.612;2023-06-05T00:18:38;7.40;99.90
22795;DHT22;11564;50.920;11.612;2023-06-05T00:21:04;7.40;99.90
22795;DHT22;11564;50.920;11.612;2023-06-05T00:23:30;7.40;99.90
22795;DHT22;11564;50.920;11.612;2023-06-05T00:25:56;7.40;99.90
22795;DHT22;11564;50.920;11.612;2023-06-05T00:28:22;7.30;99.90
22795;DHT22;11564;50.920;11.612;2023-06-05T00:30:49;7.30;99.90
22795;DHT22;11564;50.920;11.612;2023-06-05T00:33:15;7.30;99.90
22795;DHT22;11564;50.920;11.612;2023-06-05T00:35:40;7.20;99.90
22795;DHT22;11564;50.920;11.612;2023-06-05T00:38:06;7.20;99.90
22795;DHT22;11564;50.920;11.612;2023-06-05T00:40:32;7.10;99.90
22795;DHT22;11564;50.920;11.612;2023-06-05T00:42:58;7.10;99.90
22795;DHT22;11564;50.920;11.612;2023-06-05T00:45:24;7.10;99.90
22795;DHT22;11564;50.920;11.612;2023-06-05T00:47:49;7.00;99.90
22795;DHT22;11564;50.920;11.612;2023-06-05T00:50:16;7.00;99.90
22795;DHT22;11564;50.920;11.612;2023-06-05T00:52:43;7.00;99.90
22795;DHT22;11564;50.920;11.612;2023-06-05T00:55:10;7.00;99.90
22795;DHT22;11564;50.920;11.612;2023-06-05T00:57:37;6.90;99.90
22795;DHT22;11564;50.920;11.612;2023-06-05T01:00:05;6.90;99.90
22795;DHT22;11564;50.920;11.612;2023-06-05T01:02:33;6.90;99.90
22795;DHT22;11564;50.920;11.612;2023-06-05T01:05:00;6.90;99.90
22795;DHT22;11564;50.920;11.612;2023-06-05T01:07:26;6.80;99.90
22795;DHT22;11564;50.920;11.612;2023-06-05T01:09:54;6.80;99.90
22795;DHT22;11564;50.920;11.612;2023-06-05T01:15:08;6.80;99.90
22795;DHT22;11564;50.920;11.612;2023-06-05T01:17:34;6.80;99.90
22795;DHT22;11564;50.920;11.612;2023-06-05T01:20:00;6.80;99.90
22795;DHT22;11564;50.920;11.612;2023-06-05T01:22:33;6.70;99.90
22795;DHT22;11564;50.920;11.612;2023-06-05T01:25:00;6.70;99.90
22795;DHT22;11564;50.920;11.612;2023-06-05T01:33:02;6.50;99.90
22795;DHT22;11564;50.920;11.612;2023-06-05T01:35:32;6.40;99.90
22795;DHT22;11564;50.920;11.612;2023-06-05T01:38:02;6.30;99.90
22795;DHT22;11564;50.920;11.612;2023-06-05T01:40:31;6.30;99.90
22795;DHT22;11564;50.920;11.612;2023-06-05T01:42:59;6.30;99.90
22795;DHT22;11564;50.920;11.612;2023-06-05T01:45:25;6.20;99.90
22795;DHT22;11564;50.920;11.612;2023-06-05T01:47:51;6.20;99.90
22795;DHT22;11564;50.920;11.612;2023-06-05T01:50:19;6.20;99.90
22795;DHT22;11564;50.920;11.612;2023-06-05T01:52:46;6.20;99.90
22795;DHT22;11564;50.920;11.612;2023-06-05T01:55:30;6.20;99.90
22795;DHT22;11564;50.920;11.612;2023-06-05T01:57:56;6.10;99.90
22795;DHT22;11564;50.920;11.612;2023-06-05T02:00:22;6.10;99.90
22795;DHT22;11564;50.920;11.612;2023-06-05T02:02:48;6.00;99.90
22795;DHT22;11564;50.920;11.612;2023-06-05T02:05:16;6.00;99.90
22795;DHT22;11564;50.920;11.612;2023-06-05T02:07:45;6.00;99.90
22795;DHT22;11564;50.920;11.612;2023-06-05T02:10:20;6.00;99.90
22795;DHT22;11564;50.920;11.612;2023-06-05T02:12:46;5.90;99.90
22795;DHT22;11564;50.920;11.612;2023-06-05T02:15:12;5.90;99.90
22795;DHT22;11564;50.920;11.612;2023-06-05T02:17:40;5.90;99.90
22795;DHT22;11564;50.920;11.612;2023-06-05T02:20:16;5.90;99.90
22795;DHT22;11564;50.920;11.612;2023-06-05T02:22:42;5.80;99.90
22795;DHT22;11564;50.920;11.612;2023-06-05T02:25:08;5.80;99.90
22795;DHT22;11564;50.920;11.612;2023-06-05T02:27:36;5.80;99.90
22795;DHT22;11564;50.920;11.612;2023-06-05T02:30:01;5.80;99.90
22795;DHT22;11564;50.920;11.612;2023-06-05T02:32:27;5.80;99.90
22795;DHT22;11564;50.920;11.612;2023-06-05T02:34:54;5.80;99.90
22795;DHT22;11564;50.920;11.612;2023-06-05T02:37:23;5.70;99.90
22795;DHT22;11564;50.920;11.612;2023-06-05T02:39:49;5.70;99.90
22795;DHT22;11564;50.920;11.612;2023-06-05T02:42:15;5.70;99.90
22795;DHT22;11564;50.920;11.612;2023-06-05T02:44:42;5.70;99.90
22795;DHT22;11564;50.920;11.612;2023-06-05T02:47:07;5.60;99.90
22795;DHT22;11564;50.920;11.612;2023-06-05T02:49:33;5.60;99.90
22795;DHT22;11564;50.920;11.612;2023-06-05T02:51:59;5.60;99.90
22795;DHT22;11564;50.920;11.612;2023-06-05T02:54:25;5.60;99.90
22795;DHT22;11564;50.920;11.612;2023-06-05T02:56:54;5.60;99.90
22795;DHT22;11564;50.920;11.612;2023-06-05T02:59:19;5.50;99.90
22795;DHT22;11564;50.920;11.612;2023-06-05T03:01:50;5.40;99.90
22795;DHT22;11564;50.920;11.612;2023-06-05T03:04:16;5.40;99.90
22795;DHT22;11564;50.920;11.612;2023-06-05T03:06:47;5.40;99.90
22795;DHT22;11564;50.920;11.612;2023-06-05T03:09:13;5.40;99.90
22795;DHT22;11564;50.920;11.612;2023-06-05T03:11:39;5.40;99.90
22795;DHT22;11564;50.920;11.612;2023-06-05T03:14:05;5.40;99.90
22795;DHT22;11564;50.920;11.612;2023-06-05T03:16:30;5.30;99.90
22795;DHT22;11564;50.920;11.612;2023-06-05T03:18:58;5.30;99.90
22795;DHT22;11564;50.920;11.612;2023-06-05T03:21:23;5.30;99.90
22795;DHT22;11564;50.920;11.612;2023-06-05T03:23:49;5.30;99.90
22795;DHT22;11564;50.920;11.612;2023-06-05T03:26:14;5.30;99.90
22795;DHT22;11564;50.920;11.612;2023-06-05T03:28:40;5.30;99.90
22795;DHT22;11564;50.920;11.612;2023-06-05T03:31:06;5.30;99.90
22795;DHT22;11564;50.920;11.612;2023-06-05T03:33:32;5.40;99.90
22795;DHT22;11564;50.920;11.612;2023-06-05T03:35:57;5.30;99.90
22795;DHT22;11564;50.920;11.612;2023-06-05T03:38:23;5.40;99.90
22795;DHT22;11564;50.920;11.612;2023-06-05T03:40:48;5.40;99.90
22795;DHT22;11564;50.920;11.612;2023-06-05T03:43:14;5.40;99.90
22795;DHT22;11564;50.920;11.612;2023-06-05T03:45:40;5.40;99.90
22795;DHT22;11564;50.920;11.612;2023-06-05T03:48:06;5.40;99.90
22795;DHT22;11564;50.920;11.612;2023-06-05T03:50:32;5.40;99.90
22795;DHT22;11564;50.920;11.612;2023-06-05T03:53:02;5.40;99.90
22795;DHT22;11564;50.920;11.612;2023-06-05T03:55:30;5.50;99.90
22795;DHT22;11564;50.920;11.612;2023-06-05T03:58:07;5.40;99.90
22795;DHT22;11564;50.920;11.612;2023-06-05T04:00:33;5.50;99.90
22795;DHT22;11564;50.920;11.612;2023-06-05T04:02:59;5.50;99.90
22795;DHT22;11564;50.920;11.612;2023-06-05T04:05:24;5.50;99.90
22795;DHT22;11564;50.920;11.612;2023-06-05T04:07:50;5.50;99.90
22795;DHT22;11564;50.920;11.612;2023-06-05T04:10:16;5.50;99.90
22795;DHT22;11564;50.920;11.612;2023-06-05T04:12:41;5.60;99.90
22795;DHT22;11564;50.920;11.612;2023-06-05T04:15:07;5.50;99.90
22795;DHT22;11564;50.920;11.612;2023-06-05T04:17:34;5.50;99.90
22795;DHT22;11564;50.920;11.612;2023-06-05T04:20:00;5.60;99.90
22795;DHT22;11564;50.920;11.612;2023-06-05T04:22:26;5.60;99.90
22795;DHT22;11564;50.920;11.612;2023-06-05T04:24:52;5.70;99.90
22795;DHT22;11564;50.920;11.612;2023-06-05T04:27:17;5.80;99.90
22795;DHT22;11564;50.920;11.612;2023-06-05T04:29:43;5.80;99.90
22795;DHT22;11564;50.920;11.612;2023-06-05T04:32:10;5.90;99.90
22795;DHT22;11564;50.920;11.612;2023-06-05T04:34:35;5.90;99.90
22795;DHT22;11564;50.920;11.612;2023-06-05T04:37:01;6.00;99.90
22795;DHT22;11564;50.920;11.612;2023-06-05T04:39:27;6.10;99.90
22795;DHT22;11564;50.920;11.612;2023-06-05T04:41:53;6.20;99.90
22795;DHT22;11564;50.920;11.612;2023-06-05T04:44:18;6.20;99.90
22795;DHT22;11564;50.920;11.612;2023-06-05T04:46:45;6.30;99.90
22795;DHT22;11564;50.920;11.612;2023-06-05T04:49:14;6.30;99.90
22795;DHT22;11564;50.920;11.612;2023-06-05T04:51:41;6.40;99.90
22795;DHT22;11564;50.920;11.612;2023-06-05T04:54:09;6.50;99.90
22795;DHT22;11564;50.920;11.612;2023-06-05T04:56:36;6.50;99.90
22795;DHT22;11564;50.920;11.612;2023-06-05T04:59:04;6.60;99.90
22795;DHT22;11564;50.920;11.612;2023-06-05T05:01:30;6.60;99.90
22795;DHT22;11564;50.920;11.612;2023-06-05T05:03:55;6.60;99.90
22795;DHT22;11564;50.920;11.612;2023-06-05T05:06:21;6.70;99.90
22795;DHT22;11564;50.920;11.612;2023-06-05T05:08:47;6.80;99.90
22795;DHT22;11564;50.920;11.612;2023-06-05T05:11:17;6.90;99.90
22795;DHT22;11564;50.920;11.612;2023-06-05T05:13:43;7.00;99.90
22795;DHT22;11564;50.920;11.612;2023-06-05T05:16:09;7.10;99.90
22795;DHT22;11564;50.920;11.612;2023-06-05T05:18:39;7.20;99.90
22795;DHT22;11564;50.920;11.612;2023-06-05T05:21:05;7.30;99.90
22795;DHT22;11564;50.920;11.612;2023-06-05T05:23:35;7.40;99.90
22795;DHT22;11564;50.920;11.612;2023-06-05T05:26:01;7.60;99.90
22795;DHT22;11564;50.920;11.612;2023-06-05T05:28:27;7.70;99.90
22795;DHT22;11564;50.920;11.612;2023-06-05T05:30:54;7.90;99.90
22795;DHT22;11564;50.920;11.612;2023-06-05T05:33:21;8.10;99.90
22795;DHT22;11564;50.920;11.612;2023-06-05T05:35:47;8.30;99.90
22795;DHT22;11564;50.920;11.612;2023-06-05T05:38:13;8.60;99.90
22795;DHT22;11564;50.920;11.612;2023-06-05T05:40:39;8.80;99.90
22795;DHT22;11564;50.920;11.612;2023-06-05T05:43:05;9.00;99.90
22795;DHT22;11564;50.920;11.612;2023-06-05T05:45:31;9.20;99.90
22795;DHT22;11564;50.920;11.612;2023-06-05T05:47:56;9.40;99.90
22795;DHT22;11564;50.920;11.612;2023-06-05T05:50:22;9.60;99.90
22795;DHT22;11564;50.920;11.612;2023-06-05T05:52:48;9.80;99.90
22795;DHT22;11564;50.920;11.612;2023-06-05T05:55:13;9.90;99.90
22795;DHT22;11564;50.920;11.612;2023-06-05T05:57:39;10.00;99.90
22795;DHT22;11564;50.920;11.612;2023-06-05T06:00:05;10.10;99.90
22795;DHT22;11564;50.920;11.612;2023-06-05T06:02:35;10.20;99.90
22795;DHT22;11564;50.920;11.612;2023-06-05T06:05:02;10.20;99.90
22795;DHT22;11564;50.920;11.612;2023-06-05T06:07:28;10.40;99.90
22795;DHT22;11564;50.920;11.612;2023-06-05T06:09:54;10.50;99.90
22795;DHT22;11564;50.920;11.612;2023-06-05T06:12:19;10.50;99.90
22795;DHT22;11564;50.920;11.612;2023-06-05T06:14:45;10.60;99.90
22795;DHT22;11564;50.920;11.612;2023-06-05T06:17:13;10.70;99.90
22795;DHT22;11564;50.920;11.612;2023-06-05T06:19:39;10.80;99.90
22795;DHT22;11564;50.920;11.612;2023-06-05T06:22:04;10.90;99.90
22795;DHT22;11564;50.920;11.612;2023-06-05T06:24:37;10.90;99.90
22795;DHT22;11564;50.920;11.612;2023-06-05T06:27:03;11.00;99.90
22795;DHT22;11564;50.920;11.612;2023-06-05T06:29:29;11.10;99.70
22795;DHT22;11564;50.920;11.612;2023-06-05T06:31:56;11.20;99.90
22795;DHT22;11564;50.920;11.612;2023-06-05T06:34:22;11.30;99.70
22795;DHT22;11564;50.920;11.612;2023-06-05T06:36:50;11.60;99.90
22795;DHT22;11564;50.920;11.612;2023-06-05T06:39:16;11.80;99.90
22795;DHT22;11564;50.920;11.612;2023-06-05T06:41:44;11.80;99.80
22795;DHT22;11564;50.920;11.612;2023-06-05T06:44:09;11.80;99.30
22795;DHT22;11564;50.920;11.612;2023-06-05T06:46:35;11.80;99.90
22795;DHT22;11564;50.920;11.612;2023-06-05T06:49:02;11.80;99.90
22795;DHT22;11564;50.920;11.612;2023-06-05T06:51:28;11.90;99.90
22795;DHT22;11564;50.920;11.612;2023-06-05T06:53:54;12.00;99.90
22795;DHT22;11564;50.920;11.612;2023-06-05T06:56:19;12.00;99.60
22795;DHT22;11564;50.920;11.612;2023-06-05T06:58:45;12.10;99.30
22795;DHT22;11564;50.920;11.612;2023-06-05T07:01:11;12.30;99.10
22795;DHT22;11564;50.920;11.612;2023-06-05T07:03:38;12.40;99.20
22795;DHT22;11564;50.920;11.612;2023-06-05T07:06:05;12.60;98.10
22795;DHT22;11564;50.920;11.612;2023-06-05T07:08:31;12.80;97.90
22795;DHT22;11564;50.920;11.612;2023-06-05T07:10:56;13.00;98.00
22795;DHT22;11564;50.920;11.612;2023-06-05T07:13:22;13.30;97.70
22795;DHT22;11564;50.920;11.612;2023-06-05T07:15:48;13.50;96.80
22795;DHT22;11564;50.920;11.612;2023-06-05T07:18:16;13.90;96.00
22795;DHT22;11564;50.920;11.612;2023-06-05T07:20:42;14.20;95.80
22795;DHT22;11564;50.920;11.612;2023-06-05T07:23:08;14.40;94.20
22795;DHT22;11564;50.920;11.612;2023-06-05T07:25:33;14.80;93.20
22795;DHT22;11564;50.920;11.612;2023-06-05T07:27:59;15.00;92.10
22795;DHT22;11564;50.920;11.612;2023-06-05T07:30:26;15.20;90.80
22795;DHT22;11564;50.920;11.612;2023-06-05T07:32:53;15.40;89.70
22795;DHT22;11564;50.920;11.612;2023-06-05T07:35:19;15.60;89.60
22795;DHT22;11564;50.920;11.612;2023-06-05T07:37:44;15.70;90.00
22795;DHT22;11564;50.920;11.612;2023-06-05T07:40:10;15.90;90.20
22795;DHT22;11564;50.920;11.612;2023-06-05T07:42:36;16.00;90.00
22795;DHT22;11564;50.920;11.612;2023-06-05T07:45:02;16.20;88.40
22795;DHT22;11564;50.920;11.612;2023-06-05T07:47:27;16.20;86.70
22795;DHT22;11564;50.920;11.612;2023-06-05T07:49:58;16.10;87.10
22795;DHT22;11564;50.920;11.612;2023-06-05T07:52:25;16.10;85.80
22795;DHT22;11564;50.920;11.612;2023-06-05T07:54:50;16.10;86.90
22795;DHT22;11564;50.920;11.612;2023-06-05T07:57:16;16.10;86.20
22795;DHT22;11564;50.920;11.612;2023-06-05T07:59:43;16.20;86.50
22795;DHT22;11564;50.920;11.612;2023-06-05T08:02:08;16.30;86.30
22795;DHT22;11564;50.920;11.612;2023-06-05T08:04:34;16.30;87.40
22795;DHT22;11564;50.920;11.612;2023-06-05T08:07:00;16.40;86.50
22795;DHT22;11564;50.920;11.612;2023-06-05T08:09:26;16.60;86.20
22795;DHT22;11564;50.920;11.612;2023-06-05T08:11:52;16.80;85.00
22795;DHT22;11564;50.920;11.612;2023-06-05T08:14:17;17.10;84.70
22795;DHT22;11564;50.920;11.612;2023-06-05T08:16:43;17.30;82.40
22795;DHT22;11564;50.920;11.612;2023-06-05T08:19:09;17.30;81.90
22795;DHT22;11564;50.920;11.612;2023-06-05T08:21:34;17.50;82.80
22795;DHT22;11564;50.920;11.612;2023-06-05T08:24:02;17.60;81.70
22795;DHT22;11564;50.920;11.612;2023-06-05T08:26:29;17.90;79.70
22795;DHT22;11564;50.920;11.612;2023-06-05T08:28:55;18.10;79.00
22795;DHT22;11564;50.920;11.612;2023-06-05T08:31:20;18.30;78.80
22795;DHT22;11564;50.920;11.612;2023-06-05T08:33:47;18.70;79.40
22795;DHT22;11564;50.920;11.612;2023-06-05T08:36:13;18.80;78.50
22795;DHT22;11564;50.920;11.612;2023-06-05T08:38:38;19.10;77.50
22795;DHT22;11564;50.920;11.612;2023-06-05T08:41:05;19.10;77.40
22795;DHT22;11564;50.920;11.612;2023-06-05T08:43:38;19.00;77.40
22795;DHT22;11564;50.920;11.612;2023-06-05T08:46:06;19.20;76.70
22795;DHT22;11564;50.920;11.612;2023-06-05T08:48:37;19.10;76.50
22795;DHT22;11564;50.920;11.612;2023-06-05T08:51:03;19.00;76.40
22795;DHT22;11564;50.920;11.612;2023-06-05T08:53:32;19.00;77.60
22795;DHT22;11564;50.920;11.612;2023-06-05T08:55:59;19.20;76.50
22795;DHT22;11564;50.920;11.612;2023-06-05T08:58:26;19.60;76.60
22795;DHT22;11564;50.920;11.612;2023-06-05T09:00:52;19.80;76.30
22795;DHT22;11564;50.920;11.612;2023-06-05T09:03:18;20.00;75.10
22795;DHT22;11564;50.920;11.612;2023-06-05T09:05:46;19.60;75.20
22795;DHT22;11564;50.920;11.612;2023-06-05T09:08:14;19.50;75.10
22795;DHT22;11564;50.920;11.612;2023-06-05T09:10:39;19.60;75.20
22795;DHT22;11564;50.920;11.612;2023-06-05T09:13:05;19.60;75.00
22795;DHT22;11564;50.920;11.612;2023-06-05T09:15:32;19.60;74.70
22795;DHT22;11564;50.920;11.612;2023-06-05T09:18:09;20.10;74.60
22795;DHT22;11564;50.920;11.612;2023-06-05T09:20:40;20.00;73.30
22795;DHT22;11564;50.920;11.612;2023-06-05T09:23:26;20.60;74.00
22795;DHT22;11564;50.920;11.612;2023-06-05T09:25:54;21.10;74.20
22795;DHT22;11564;50.920;11.612;2023-06-05T09:28:20;21.30;72.20
22795;DHT22;11564;50.920;11.612;2023-06-05T09:30:56;21.70;72.50
22795;DHT22;11564;50.920;11.612;2023-06-05T09:33:23;22.00;71.00
22795;DHT22;11564;50.920;11.612;2023-06-05T09:36:04;22.30;69.60
22795;DHT22;11564;50.920;11.612;2023-06-05T09:38:30;22.20;67.40
22795;DHT22;11564;50.920;11.612;2023-06-05T09:41:07;22.00;68.50
22795;DHT22;11564;50.920;11.612;2023-06-05T09:43:33;22.10;70.60
22795;DHT22;11564;50.920;11.612;2023-06-05T09:46:12;22.00;69.20
22795;DHT22;11564;50.920;11.612;2023-06-05T09:48:39;22.30;70.70
22795;DHT22;11564;50.920;11.612;2023-06-05T09:51:12;22.30;68.50
22795;DHT22;11564;50.920;11.612;2023-06-05T09:53:42;22.60;69.90
22795;DHT22;11564;50.920;11.612;2023-06-05T09:56:11;22.90;69.10
22795;DHT22;11564;50.920;11.612;2023-06-05T09:58:38;23.20;68.10
22795;DHT22;11564;50.920;11.612;2023-06-05T10:01:06;23.70;68.20
22795;DHT22;11564;50.920;11.612;2023-06-05T10:03:34;23.60;68.10
22795;DHT22;11564;50.920;11.612;2023-06-05T10:06:03;24.20;67.00
22795;DHT22;11564;50.920;11.612;2023-06-05T10:08:30;24.50;66.00
22795;DHT22;11564;50.920;11.612;2023-06-05T10:10:57;24.70;65.20
22795;DHT22;11564;50.920;11.612;2023-06-05T10:13:22;25.10;65.00
22795;DHT22;11564;50.920;11.612;2023-06-05T10:15:49;25.30;64.80
22795;DHT22;11564;50.920;11.612;2023-06-05T10:18:17;25.20;60.10
22795;DHT22;11564;50.920;11.612;2023-06-05T10:20:44;25.00;62.60
22795;DHT22;11564;50.920;11.612;2023-06-05T10:23:14;25.00;61.40
22795;DHT22;11564;50.920;11.612;2023-06-05T10:25:41;25.00;62.20
22795;DHT22;11564;50.920;11.612;2023-06-05T10:31:11;25.00;60.50
22795;DHT22;11564;50.920;11.612;2023-06-05T10:33:54;24.90;61.00
22795;DHT22;11564;50.920;11.612;2023-06-05T10:36:47;25.10;62.20
22795;DHT22;11564;50.920;11.612;2023-06-05T10:39:21;25.70;61.40
22795;DHT22;11564;50.920;11.612;2023-06-05T10:41:50;25.60;60.70
22795;DHT22;11564;50.920;11.612;2023-06-05T10:44:16;26.10;59.90
22795;DHT22;11564;50.920;11.612;2023-06-05T10:46:42;26.30;59.90
22795;DHT22;11564;50.920;11.612;2023-06-05T10:49:12;26.40;58.20
22795;DHT22;11564;50.920;11.612;2023-06-05T10:51:50;26.50;57.10
22795;DHT22;11564;50.920;11.612;2023-06-05T10:56:53;26.10;58.40
22795;DHT22;11564;50.920;11.612;2023-06-05T10:59:28;25.90;59.30
22795;DHT22;11564;50.920;11.612;2023-06-05T11:15:15;25.80;59.20
22795;DHT22;11564;50.920;11.612;2023-06-05T11:17:42;25.90;60.20
22795;DHT22;11564;50.920;11.612;2023-06-05T11:28:06;26.90;58.60
22795;DHT22;11564;50.920;11.612;2023-06-05T11:30:39;27.10;58.20
22795;DHT22;11564;50.920;11.612;2023-06-05T11:33:16;27.30;58.40
22795;DHT22;11564;50.920;11.612;2023-06-05T11:35:44;27.40;57.10
22795;DHT22;11564;50.920;11.612;2023-06-05T11:38:21;27.00;57.10
22795;DHT22;11564;50.920;11.612;2023-06-05T11:40:50;27.30;57.00
22795;DHT22;11564;50.920;11.612;2023-06-05T11:43:16;27.60;58.40
22795;DHT22;11564;50.920;11.612;2023-06-05T11:45:51;28.20;56.60
22795;DHT22;11564;50.920;11.612;2023-06-05T11:48:18;28.50;56.60
22795;DHT22;11564;50.920;11.612;2023-06-05T11:50:57;28.90;55.10
22795;DHT22;11564;50.920;11.612;2023-06-05T11:53:24;29.40;54.20
22795;DHT22;11564;50.920;11.612;2023-06-05T11:55:54;29.70;53.30
22795;DHT22;11564;50.920;11.612;2023-06-05T11:58:32;30.10;52.60
22795;DHT22;11564;50.920;11.612;2023-06-05T12:01:19;30.20;51.50
22795;DHT22;11564;50.920;11.612;2023-06-05T12:04:09;30.10;51.80
22795;DHT22;11564;50.920;11.612;2023-06-05T12:06:42;30.10;52.10
22795;DHT22;11564;50.920;11.612;2023-06-05T12:09:09;30.20;51.10
22795;DHT22;11564;50.920;11.612;2023-06-05T12:11:35;30.10;50.20
22795;DHT22;11564;50.920;11.612;2023-06-05T12:14:00;30.30;49.60
22795;DHT22;11564;50.920;11.612;2023-06-05T12:16:37;30.10;50.30
22795;DHT22;11564;50.920;11.612;2023-06-05T12:19:17;30.00;49.80
22795;DHT22;11564;50.920;11.612;2023-06-05T12:21:49;29.70;50.00
22795;DHT22;11564;50.920;11.612;2023-06-05T12:24:24;29.60;50.50
22795;DHT22;11564;50.920;11.612;2023-06-05T12:26:52;30.00;50.90
22795;DHT22;11564;50.920;11.612;2023-06-05T12:29:25;30.20;49.40
22795;DHT22;11564;50.920;11.612;2023-06-05T12:31:52;30.40;49.70
22795;DHT22;11564;50.920;11.612;2023-06-05T12:34:18;30.30;49.60
22795;DHT22;11564;50.920;11.612;2023-06-05T12:36:44;30.70;49.90
22795;DHT22;11564;50.920;11.612;2023-06-05T12:39:13;30.70;49.20
22795;DHT22;11564;50.920;11.612;2023-06-05T12:41:40;30.30;48.80
22795;DHT22;11564;50.920;11.612;2023-06-05T12:44:06;30.20;49.40
22795;DHT22;11564;50.920;11.612;2023-06-05T12:46:34;30.20;50.00
22795;DHT22;11564;50.920;11.612;2023-06-05T12:49:00;30.30;50.00
22795;DHT22;11564;50.920;11.612;2023-06-05T12:51:29;30.60;50.80
22795;DHT22;11564;50.920;11.612;2023-06-05T12:53:56;30.70;50.60
22795;DHT22;11564;50.920;11.612;2023-06-05T12:56:23;30.70;49.60
22795;DHT22;11564;50.920;11.612;2023-06-05T12:58:58;30.80;50.00
22795;DHT22;11564;50.920;11.612;2023-06-05T13:01:26;30.90;49.30
22795;DHT22;11564;50.920;11.612;2023-06-05T13:03:54;31.10;48.00
22795;DHT22;11564;50.920;11.612;2023-06-05T13:06:20;30.80;49.00
22795;DHT22;11564;50.920;11.612;2023-06-05T13:08:46;30.90;50.20
22795;DHT22;11564;50.920;11.612;2023-06-05T13:11:12;30.70;48.80
22795;DHT22;11564;50.920;11.612;2023-06-05T13:13:38;31.10;49.90
22795;DHT22;11564;50.920;11.612;2023-06-05T13:16:04;31.90;48.20
22795;DHT22;11564;50.920;11.612;2023-06-05T13:18:34;33.50;45.70
22795;DHT22;11564;50.920;11.612;2023-06-05T13:21:03;33.80;45.40
22795;DHT22;11564;50.920;11.612;2023-06-05T13:23:29;34.80;43.30
22795;DHT22;11564;50.920;11.612;2023-06-05T13:25:55;36.20;42.00
22795;DHT22;11564;50.920;11.612;2023-06-05T13:28:21;35.60;41.70
22795;DHT22;11564;50.920;11.612;2023-06-05T13:30:46;35.30;42.70
22795;DHT22;11564;50.920;11.612;2023-06-05T13:33:12;34.50;41.60
22795;DHT22;11564;50.920;11.612;2023-06-05T13:35:39;34.50;42.50
22795;DHT22;11564;50.920;11.612;2023-06-05T13:38:06;34.50;41.70
22795;DHT22;11564;50.920;11.612;2023-06-05T13:40:31;38.20;39.60
22795;DHT22;11564;50.920;11.612;2023-06-05T13:42:59;37.00;39.50
22795;DHT22;11564;50.920;11.612;2023-06-05T13:45:24;36.20;40.80
22795;DHT22;11564;50.920;11.612;2023-06-05T13:47:50;38.90;38.90
22795;DHT22;11564;50.920;11.612;2023-06-05T13:50:17;40.30;36.70
22795;DHT22;11564;50.920;11.612;2023-06-05T13:52:45;40.70;36.90
22795;DHT22;11564;50.920;11.612;2023-06-05T13:55:10;41.20;36.50
22795;DHT22;11564;50.920;11.612;2023-06-05T13:57:36;39.90;36.80
22795;DHT22;11564;50.920;11.612;2023-06-05T14:00:02;40.50;35.70
22795;DHT22;11564;50.920;11.612;2023-06-05T14:02:28;38.20;37.60
22795;DHT22;11564;50.920;11.612;2023-06-05T14:04:54;36.50;39.50
22795;DHT22;11564;50.920;11.612;2023-06-05T14:07:19;34.70;41.50
22795;DHT22;11564;50.920;11.612;2023-06-05T14:09:45;33.40;43.10
22795;DHT22;11564;50.920;11.612;2023-06-05T14:12:11;33.50;43.20
22795;DHT22;11564;50.920;11.612;2023-06-05T14:14:36;33.50;44.20
22795;DHT22;11564;50.920;11.612;2023-06-05T14:17:02;34.20;42.90
22795;DHT22;11564;50.920;11.612;2023-06-05T14:19:28;33.80;42.90
22795;DHT22;11564;50.920;11.612;2023-06-05T14:21:53;33.70;42.60
22795;DHT22;11564;50.920;11.612;2023-06-05T14:24:19;36.80;40.80
22795;DHT22;11564;50.920;11.612;2023-06-05T14:26:45;38.90;37.50
22795;DHT22;11564;50.920;11.612;2023-06-05T14:29:11;41.10;36.10
22795;DHT22;11564;50.920;11.612;2023-06-05T14:31:37;43.30;34.30
22795;DHT22;11564;50.920;11.612;2023-06-05T14:34:03;43.20;33.70
22795;DHT22;11564;50.920;11.612;2023-06-05T14:36:29;45.70;32.50
22795;DHT22;11564;50.920;11.612;2023-06-05T14:38:54;45.70;33.00
22795;DHT22;11564;50.920;11.612;2023-06-05T14:41:20;42.90;34.00
22795;DHT22;11564;50.920;11.612;2023-06-05T14:43:46;40.50;35.10
22795;DHT22;11564;50.920;11.612;2023-06-05T14:46:11;37.90;37.10
22795;DHT22;11564;50.920;11.612;2023-06-05T14:48:37;35.70;39.20
22795;DHT22;11564;50.920;11.612;2023-06-05T14:51:03;33.30;41.90
22795;DHT22;11564;50.920;11.612;2023-06-05T14:53:29;31.50;44.60
22795;DHT22;11564;50.920;11.612;2023-06-05T14:55:57;30.90;45.60
22795;DHT22;11564;50.920;11.612;2023-06-05T14:58:23;30.30;46.40
22795;DHT22;11564;50.920;11.612;2023-06-05T15:00:48;30.50;47.00
22795;DHT22;11564;50.920;11.612;2023-06-05T15:03:14;33.50;43.80
22795;DHT22;11564;50.920;11.612;2023-06-05T15:05:40;36.00;40.80
22795;DHT22;11564;50.920;11.612;2023-06-05T15:08:05;35.00;41.10
22795;DHT22;11564;50.920;11.612;2023-06-05T15:10:31;33.80;42.80
22795;DHT22;11564;50.920;11.612;2023-06-05T15:12:57;32.90;43.20
22795;DHT22;11564;50.920;11.612;2023-06-05T15:15:26;32.10;44.30
22795;DHT22;11564;50.920;11.612;2023-06-05T15:17:51;31.50;45.00
22795;DHT22;11564;50.920;11.612;2023-06-05T15:20:21;31.10;45.20
22795;DHT22;11564;50.920;11.612;2023-06-05T15:22:46;30.20;46.80
22795;DHT22;11564;50.920;11.612;2023-06-05T15:25:12;30.40;47.20
22795;DHT22;11564;50.920;11.612;2023-06-05T15:27:38;33.10;44.70
22795;DHT22;11564;50.920;11.612;2023-06-05T15:30:07;35.00;42.20
22795;DHT22;11564;50.920;11.612;2023-06-05T15:32:33;34.60;42.20
22795;DHT22;11564;50.920;11.612;2023-06-05T15:34:58;33.60;43.10
22795;DHT22;11564;50.920;11.612;2023-06-05T15:37:24;34.80;41.50
22795;DHT22;11564;50.920;11.612;2023-06-05T15:39:51;36.90;39.70
22795;DHT22;11564;50.920;11.612;2023-06-05T15:42:33;39.40;38.40
22795;DHT22;11564;50.920;11.612;2023-06-05T15:45:12;41.50;35.70
22795;DHT22;11564;50.920;11.612;2023-06-05T15:47:39;43.40;34.60
22795;DHT22;11564;50.920;11.612;2023-06-05T15:50:06;43.50;33.80
22795;DHT22;11564;50.920;11.612;2023-06-05T15:52:33;42.60;33.90
22795;DHT22;11564;50.920;11.612;2023-06-05T15:54:59;40.80;34.90
22795;DHT22;11564;50.920;11.612;2023-06-05T15:57:25;37.10;36.80
22795;DHT22;11564;50.920;11.612;2023-06-05T15:59:51;35.40;38.90